createdAt,value
2022-10-21T03:01:51.741Z,15.00
2022-10-21T03:04:18.980Z,14.80
2022-10-21T03:06:46.101Z,14.90
2022-10-21T03:09:13.226Z,14.80
2022-10-21T03:11:40.329Z,14.80
2022-10-21T03:14:07.511Z,14.80
2022-10-21T03:16:34.618Z,14.80
2022-10-21T03:19:01.836Z,14.90
2022-10-21T03:21:28.981Z,14.90
2022-10-21T03:23:56.088Z,14.90
2022-10-21T03:26:23.211Z,14.90
2022-10-21T03:28:50.343Z,15.00
2022-10-21T03:31:17.451Z,15.00
2022-10-21T03:33:44.592Z,15.00
2022-10-21T03:36:11.710Z,14.90
2022-10-21T03:38:38.816Z,14.90
2022-10-21T03:41:05.996Z,14.90
2022-10-21T03:43:33.128Z,14.80
2022-10-21T03:46:00.258Z,14.80
2022-10-21T03:48:27.940Z,14.80
2022-10-21T03:50:58.012Z,14.80
2022-10-21T03:53:42.230Z,14.70
2022-10-21T03:56:11.114Z,14.50
2022-10-21T03:58:38.418Z,14.50
2022-10-21T04:01:05.671Z,14.50
2022-10-21T04:03:32.851Z,14.40
2022-10-21T04:05:59.986Z,14.30
2022-10-21T04:08:27.123Z,14.30
2022-10-21T04:10:57.745Z,14.40
2022-10-21T04:13:25.247Z,14.40
2022-10-21T04:15:58.735Z,14.40
2022-10-21T04:18:25.944Z,14.40
2022-10-21T04:20:53.064Z,14.30
2022-10-21T04:23:20.259Z,14.20
2022-10-21T04:25:47.952Z,14.20
2022-10-21T04:28:15.310Z,14.20
2022-10-21T04:30:42.425Z,14.30
2022-10-21T04:33:09.544Z,14.30
2022-10-21T04:35:40.080Z,14.30
2022-10-21T04:38:07.361Z,14.30
2022-10-21T04:40:34.746Z,14.30
2022-10-21T04:43:02.007Z,14.20
2022-10-21T04:45:29.274Z,14.30
2022-10-21T04:47:56.548Z,14.30
2022-10-21T04:50:23.768Z,14.30
2022-10-21T04:52:51.062Z,14.30
2022-10-21T04:55:18.186Z,14.30
2022-10-21T04:57:46.012Z,14.30
2022-10-21T05:00:13.547Z,14.30
2022-10-21T05:02:41.170Z,14.20
2022-10-21T05:05:08.980Z,14.10
2022-10-21T05:07:36.284Z,14.10
2022-10-21T05:10:03.696Z,14.10
2022-10-21T05:12:30.817Z,14.20
2022-10-21T05:15:00.497Z,14.20
2022-10-21T05:17:27.720Z,14.10
2022-10-21T05:19:54.834Z,14.10
2022-10-21T05:22:23.083Z,14.10
2022-10-21T05:24:50.225Z,14.10
2022-10-21T05:27:17.315Z,14.10
2022-10-21T05:29:44.403Z,14.10
2022-10-21T05:32:11.544Z,14.10
2022-10-21T05:34:38.710Z,14.10
2022-10-21T05:37:05.920Z,14.00
2022-10-21T05:39:33.173Z,14.10
2022-10-21T05:42:00.380Z,14.10
2022-10-21T05:44:27.668Z,14.10
2022-10-21T05:46:54.781Z,14.00
2022-10-21T05:49:21.901Z,14.00
2022-10-21T05:51:49.207Z,13.90
2022-10-21T05:54:16.571Z,14.00
2022-10-21T05:56:43.777Z,14.00
2022-10-21T05:59:11.435Z,14.00
2022-10-21T06:01:39.553Z,14.00
2022-10-21T06:04:07.825Z,14.00
2022-10-21T06:06:35.037Z,14.00
2022-10-21T06:09:02.321Z,14.00
2022-10-21T06:11:29.505Z,14.20
2022-10-21T06:13:56.724Z,14.20
2022-10-21T06:16:24.044Z,14.20
2022-10-21T06:18:51.328Z,14.20
2022-10-21T06:21:18.450Z,14.30
2022-10-21T06:23:45.615Z,14.30
2022-10-21T06:26:15.578Z,14.40
2022-10-21T06:28:44.441Z,14.40
2022-10-21T06:31:15.898Z,14.40
2022-10-21T06:33:43.396Z,14.30
2022-10-21T06:36:10.602Z,14.30
2022-10-21T06:38:38.302Z,14.30
2022-10-21T06:41:13.258Z,14.30
2022-10-21T06:43:44.383Z,14.40
2022-10-21T06:46:13.591Z,14.40
2022-10-21T06:48:40.940Z,14.10
2022-10-21T06:51:20.238Z,14.20
2022-10-21T06:53:51.102Z,14.30
2022-10-21T06:56:19.409Z,14.50
2022-10-21T06:58:48.940Z,14.40
2022-10-21T07:01:27.710Z,14.60
2022-10-21T07:04:04.013Z,14.60
2022-10-21T07:09:07.439Z,14.70
2022-10-21T07:11:34.658Z,14.70
2022-10-21T07:14:02.120Z,14.70
2022-10-21T07:16:32.542Z,14.80
2022-10-21T07:18:59.860Z,14.80
2022-10-21T07:21:28.789Z,14.90
2022-10-21T07:23:59.108Z,14.90
2022-10-21T07:26:28.928Z,15.10
2022-10-21T07:28:58.759Z,15.00
2022-10-21T07:31:26.515Z,15.00
2022-10-21T07:33:54.406Z,15.10
2022-10-21T07:36:27.248Z,15.30
2022-10-21T07:38:57.580Z,15.40
2022-10-21T07:41:31.197Z,15.50
2022-10-21T07:43:58.899Z,15.60
2022-10-21T07:46:26.145Z,15.50
2022-10-21T07:48:53.694Z,15.50
2022-10-21T07:51:26.962Z,15.50
2022-10-21T07:53:59.066Z,15.60
2022-10-21T07:56:32.258Z,15.80
2022-10-21T07:58:59.854Z,15.80
2022-10-21T08:01:28.744Z,15.90
2022-10-21T08:03:56.383Z,16.00
2022-10-21T08:06:26.167Z,16.10
2022-10-21T08:08:53.800Z,16.10
2022-10-21T08:11:29.645Z,16.10
2022-10-21T08:13:57.797Z,16.20
2022-10-21T08:16:26.439Z,16.10
2022-10-21T08:18:54.269Z,16.20
2022-10-21T08:21:21.948Z,16.20
2022-10-21T08:23:49.134Z,16.20
2022-10-21T08:26:16.832Z,16.10
2022-10-21T08:28:44.599Z,16.00
2022-10-21T08:31:20.342Z,16.00
2022-10-21T08:33:48.314Z,15.90
2022-10-21T08:36:18.037Z,15.90
2022-10-21T08:38:45.931Z,15.80
2022-10-21T08:41:24.984Z,15.50
2022-10-21T08:43:54.355Z,15.60
2022-10-21T08:46:27.132Z,15.60
2022-10-21T08:49:07.939Z,15.70
2022-10-21T08:51:51.879Z,15.90
2022-10-21T08:54:51.409Z,15.90
2022-10-21T08:57:19.875Z,15.90
2022-10-21T08:59:47.245Z,16.10
2022-10-21T09:02:30.302Z,16.10
2022-10-21T09:05:29.369Z,16.40
2022-10-21T09:08:07.075Z,16.40
2022-10-21T09:10:47.761Z,16.50
2022-10-21T09:13:54.245Z,16.50
2022-10-21T09:16:59.389Z,16.70
2022-10-21T09:19:43.754Z,16.70
2022-10-21T09:22:35.642Z,16.80
2022-10-21T09:25:09.209Z,16.80
2022-10-21T09:27:54.920Z,16.90
2022-10-21T09:30:23.634Z,16.90
2022-10-21T09:32:55.946Z,16.90
2022-10-21T09:35:29.239Z,16.80
2022-10-21T09:38:19.396Z,16.70
2022-10-21T09:40:49.739Z,16.70
2022-10-21T09:43:20.772Z,16.70
2022-10-21T09:45:48.217Z,16.60
2022-10-21T09:48:18.173Z,16.60
2022-10-21T09:50:53.357Z,16.50
2022-10-21T09:53:31.684Z,16.60
2022-10-21T09:56:06.458Z,16.60
2022-10-21T09:58:36.834Z,16.80
2022-10-21T10:01:05.987Z,17.00
2022-10-21T10:03:34.815Z,17.20
2022-10-21T10:06:03.324Z,17.50
2022-10-21T10:08:44.129Z,17.60
2022-10-21T10:11:14.106Z,17.80
2022-10-21T10:13:52.777Z,17.70
2022-10-21T10:16:32.013Z,17.60
2022-10-21T10:19:25.433Z,17.60
2022-10-21T10:22:14.984Z,17.60
2022-10-21T10:24:44.513Z,17.50
2022-10-21T10:27:20.627Z,17.40
2022-10-21T10:29:55.708Z,17.30
2022-10-21T10:32:26.564Z,17.40
2022-10-21T10:35:00.162Z,17.50
2022-10-21T10:37:31.637Z,17.60
2022-10-21T10:40:00.333Z,17.60
2022-10-21T10:42:33.811Z,17.60
2022-10-21T10:45:12.385Z,17.70
2022-10-21T10:47:47.578Z,17.80
2022-10-21T10:50:40.410Z,17.80
2022-10-21T10:53:33.532Z,17.80
2022-10-21T10:56:20.738Z,18.00
2022-10-21T10:59:14.609Z,18.00
2022-10-21T11:02:05.645Z,18.20
2022-10-21T11:07:31.804Z,18.40
2022-10-21T11:10:07.746Z,18.50
2022-10-21T11:12:34.943Z,18.70
2022-10-21T11:15:02.070Z,18.60
2022-10-21T11:17:41.514Z,18.70
2022-10-21T11:20:55.244Z,18.60
2022-10-21T11:23:43.912Z,18.40
2022-10-21T11:26:36.113Z,18.20
2022-10-21T11:29:13.934Z,18.10
2022-10-21T11:32:22.991Z,18.10
2022-10-21T11:35:19.666Z,18.10
2022-10-21T11:38:08.365Z,18.00
2022-10-21T11:41:25.586Z,18.00
2022-10-21T11:44:29.606Z,18.00
2022-10-21T11:47:28.606Z,17.90
2022-10-21T11:50:15.082Z,17.90
2022-10-21T11:53:12.447Z,17.90
2022-10-21T11:55:43.412Z,17.80
2022-10-21T11:58:29.564Z,17.70
2022-10-21T12:01:12.540Z,17.70
2022-10-21T12:03:48.201Z,17.70
2022-10-21T12:06:34.458Z,17.40
2022-10-21T12:09:46.116Z,17.40
2022-10-21T12:12:17.620Z,17.50
2022-10-21T12:14:54.542Z,17.50
2022-10-21T12:17:24.010Z,17.50
2022-10-21T12:19:59.376Z,17.50
2022-10-21T12:22:29.413Z,17.40
2022-10-21T12:25:16.791Z,17.40
2022-10-21T12:28:04.496Z,17.40
2022-10-21T12:30:56.424Z,17.50
2022-10-21T12:33:47.833Z,17.50
2022-10-21T12:36:38.304Z,17.60
2022-10-21T12:39:25.796Z,17.60
2022-10-21T12:42:12.571Z,17.60
2022-10-21T12:44:46.515Z,17.60
2022-10-21T12:47:25.039Z,17.50
2022-10-21T12:50:19.415Z,17.60
2022-10-21T12:53:03.193Z,17.50
2022-10-21T12:55:36.027Z,17.50
2022-10-21T12:58:05.688Z,17.60
2022-10-21T13:00:32.887Z,17.60
2022-10-21T13:03:11.456Z,17.60
2022-10-21T13:05:38.567Z,17.70
2022-10-21T13:08:20.572Z,17.70
2022-10-21T13:11:05.918Z,17.70
2022-10-21T13:13:40.371Z,17.60
2022-10-21T13:18:54.304Z,17.70
2022-10-21T13:21:35.412Z,17.80
2022-10-21T13:24:24.977Z,17.80
2022-10-21T13:27:00.671Z,17.70
2022-10-21T13:29:32.745Z,17.70
2022-10-21T13:32:14.860Z,17.70
2022-10-21T13:34:58.668Z,17.60
2022-10-21T13:37:36.193Z,17.60
2022-10-21T13:40:15.677Z,17.60
2022-10-21T13:42:55.413Z,17.60
2022-10-21T13:45:38.102Z,17.50
2022-10-21T13:48:12.053Z,17.60
2022-10-21T13:50:42.594Z,17.60
2022-10-21T13:53:38.052Z,17.50
2022-10-21T13:56:17.717Z,17.50
2022-10-21T13:58:44.953Z,17.40
2022-10-21T14:01:21.897Z,17.40
2022-10-21T14:06:31.782Z,17.60
2022-10-21T14:09:04.579Z,17.60
2022-10-21T14:11:37.328Z,17.60
2022-10-21T14:14:08.451Z,17.60
2022-10-21T14:16:39.485Z,17.60
2022-10-21T14:19:09.841Z,17.80
2022-10-21T14:21:39.162Z,17.70
2022-10-21T14:24:06.719Z,17.60
2022-10-21T14:26:34.592Z,17.70
2022-10-21T14:29:02.248Z,17.70
2022-10-21T14:31:29.840Z,17.40
2022-10-21T14:33:57.318Z,17.20
2022-10-21T14:36:27.692Z,17.20
2022-10-21T14:39:03.159Z,17.20
2022-10-21T14:41:36.821Z,17.30
2022-10-21T14:44:20.250Z,17.30
2022-10-21T14:46:50.736Z,17.30
2022-10-21T14:49:42.733Z,17.40
2022-10-21T14:52:21.893Z,17.40
2022-10-21T14:54:58.464Z,17.40
2022-10-21T14:57:47.551Z,17.40
2022-10-21T15:00:29.025Z,17.30
2022-10-21T15:02:59.469Z,17.30
2022-10-21T15:05:37.835Z,17.20
2022-10-21T15:08:21.360Z,17.10
2022-10-21T15:10:57.704Z,17.00
2022-10-21T15:13:26.827Z,17.00
2022-10-21T15:15:56.301Z,17.00
2022-10-21T15:18:34.540Z,16.90
2022-10-21T15:21:13.678Z,17.00
2022-10-21T15:23:50.548Z,16.90
2022-10-21T15:26:20.823Z,16.70
2022-10-21T15:28:48.151Z,16.70
2022-10-21T15:31:20.695Z,16.70
2022-10-21T15:33:53.081Z,16.60
2022-10-21T15:36:20.379Z,16.60
2022-10-21T15:38:48.483Z,16.60
2022-10-21T15:41:21.833Z,16.50
2022-10-21T15:44:23.075Z,16.50
2022-10-21T15:46:50.540Z,16.60
2022-10-21T15:49:20.494Z,16.60
2022-10-21T15:51:49.274Z,16.50
2022-10-21T15:54:18.089Z,16.40
2022-10-21T15:56:48.438Z,16.40
2022-10-21T15:59:26.561Z,16.30
2022-10-21T16:01:54.700Z,16.30
2022-10-21T16:04:22.015Z,16.30
2022-10-21T16:06:50.869Z,16.20
2022-10-21T16:09:28.214Z,16.30
2022-10-21T16:12:00.340Z,16.20
2022-10-21T16:14:30.064Z,16.10
2022-10-21T16:16:59.244Z,16.10
2022-10-21T16:19:26.977Z,16.20
2022-10-21T16:21:54.245Z,16.10
2022-10-21T16:24:21.593Z,16.00
2022-10-21T16:26:49.641Z,15.90
2022-10-21T16:29:20.297Z,16.00
2022-10-21T16:31:48.042Z,16.00
2022-10-21T16:34:15.219Z,16.00
2022-10-21T16:36:42.964Z,16.00
2022-10-21T16:39:20.351Z,16.00
2022-10-21T16:41:48.051Z,16.10
2022-10-21T16:44:15.821Z,16.10
2022-10-21T16:46:54.280Z,16.10
2022-10-21T16:49:24.544Z,16.10
2022-10-21T16:51:57.352Z,16.10
2022-10-21T16:54:24.560Z,15.90
2022-10-21T16:56:54.967Z,16.00
2022-10-21T16:59:23.381Z,15.90
2022-10-21T17:01:51.007Z,15.90
2022-10-21T17:04:18.288Z,16.00
2022-10-21T17:06:45.494Z,15.90
2022-10-21T17:09:12.906Z,16.00
2022-10-21T17:11:42.240Z,15.90
2022-10-21T17:14:15.545Z,15.90
2022-10-21T17:16:42.834Z,15.80
2022-10-21T17:19:09.986Z,15.80
2022-10-21T17:21:37.346Z,15.80
2022-10-21T17:24:05.519Z,15.80
2022-10-21T17:26:36.803Z,15.80
2022-10-21T17:29:04.029Z,15.80
2022-10-21T17:31:31.391Z,15.80
2022-10-21T17:34:07.280Z,15.80
2022-10-21T17:36:35.333Z,15.80
2022-10-21T17:39:03.573Z,15.80
2022-10-21T17:41:31.103Z,15.80
2022-10-21T17:44:01.631Z,15.70
2022-10-21T17:46:28.809Z,15.70
2022-10-21T17:48:57.500Z,15.70
2022-10-21T17:51:25.773Z,15.70
2022-10-21T17:53:54.857Z,15.70
2022-10-21T17:56:23.344Z,15.70
2022-10-21T17:58:53.243Z,15.70
2022-10-21T18:01:22.033Z,15.70
2022-10-21T18:03:49.538Z,15.70
2022-10-21T18:06:16.761Z,15.60
2022-10-21T18:08:43.982Z,15.60
2022-10-21T18:11:14.538Z,15.60
2022-10-21T18:13:42.696Z,15.50
2022-10-21T18:16:16.394Z,15.50
2022-10-21T18:18:44.365Z,15.40
2022-10-21T18:21:14.958Z,15.40
2022-10-21T18:23:43.866Z,15.40
2022-10-21T18:26:20.819Z,15.40
2022-10-21T18:28:59.678Z,15.30
2022-10-21T18:31:30.005Z,15.30
2022-10-21T18:33:59.272Z,15.30
2022-10-21T18:36:26.915Z,15.10
2022-10-21T18:38:54.467Z,15.10
2022-10-21T18:41:22.159Z,15.10
2022-10-21T18:43:54.814Z,15.20
2022-10-21T18:46:23.798Z,15.30
2022-10-21T18:48:51.051Z,15.20
2022-10-21T18:51:19.333Z,15.20
2022-10-21T18:53:50.164Z,15.10
2022-10-21T18:56:21.499Z,15.10
2022-10-21T18:58:49.821Z,15.10
2022-10-21T19:01:18.134Z,15.20
2022-10-21T19:03:45.744Z,15.20
2022-10-21T19:06:39.161Z,15.10
2022-10-21T19:09:08.349Z,15.10
2022-10-21T19:11:35.609Z,15.00
2022-10-21T19:14:02.807Z,15.00
2022-10-21T19:16:30.078Z,15.00
2022-10-21T19:18:57.296Z,15.00
2022-10-21T19:21:25.185Z,15.00
2022-10-21T19:23:53.493Z,15.00
2022-10-21T19:26:23.047Z,15.00
2022-10-21T19:28:50.552Z,15.00
2022-10-21T19:31:21.132Z,15.10
2022-10-21T19:33:48.638Z,15.20
2022-10-21T19:36:15.774Z,14.90
2022-10-21T19:38:44.796Z,14.90
2022-10-21T19:41:16.007Z,14.90
2022-10-21T19:43:43.245Z,14.90
2022-10-21T19:46:16.887Z,14.80
2022-10-21T19:48:45.786Z,14.80
2022-10-21T19:51:15.352Z,14.90
2022-10-21T19:53:45.136Z,14.80
2022-10-21T19:56:13.883Z,14.80
2022-10-21T19:58:43.683Z,14.80
2022-10-21T20:01:12.782Z,14.80
2022-10-21T20:03:41.985Z,14.80
2022-10-21T20:08:44.783Z,14.80
2022-10-21T20:11:17.932Z,14.80
2022-10-21T20:13:45.563Z,14.80
2022-10-21T20:16:24.631Z,14.90
2022-10-21T20:18:52.156Z,14.90
2022-10-21T20:21:19.592Z,14.90
2022-10-21T20:23:46.783Z,14.90
2022-10-21T20:26:13.935Z,14.90
2022-10-21T20:28:41.130Z,14.90
2022-10-21T20:31:11.494Z,14.80
2022-10-21T20:33:41.192Z,14.80
2022-10-21T20:36:15.165Z,14.80
2022-10-21T20:38:43.147Z,14.90
2022-10-21T20:41:15.656Z,14.80
2022-10-21T20:43:43.889Z,14.80
2022-10-21T20:46:13.240Z,14.90
2022-10-21T20:48:46.118Z,14.90
2022-10-21T20:51:16.273Z,15.00
2022-10-21T20:53:52.379Z,15.00
2022-10-21T20:56:20.005Z,14.90
2022-10-21T20:58:47.345Z,14.90
